createdAt,value
2022-09-14T00:01:24.719Z,16.70
2022-09-14T00:03:53.186Z,16.70
2022-09-14T00:06:19.794Z,16.70
2022-09-14T00:08:49.666Z,16.70
2022-09-14T00:11:16.361Z,16.70
2022-09-14T00:13:45.040Z,16.60
2022-09-14T00:16:16.703Z,16.60
2022-09-14T00:18:43.871Z,16.60
2022-09-14T00:21:11.284Z,16.60
2022-09-14T00:23:38.939Z,16.60
2022-09-14T00:26:06.619Z,16.60
2022-09-14T00:28:37.666Z,16.50
2022-09-14T00:31:04.696Z,16.50
2022-09-14T00:33:31.336Z,16.50
2022-09-14T00:36:03.615Z,16.50
2022-09-14T00:38:30.245Z,16.50
2022-09-14T00:40:57.828Z,16.50
2022-09-14T00:43:24.977Z,16.50
2022-09-14T00:45:52.508Z,16.50
2022-09-14T00:48:20.328Z,16.50
2022-09-14T00:50:46.943Z,16.50
2022-09-14T00:53:13.564Z,16.50
2022-09-14T00:55:40.178Z,16.50
2022-09-14T00:58:07.067Z,16.50
2022-09-14T01:00:33.783Z,16.50
2022-09-14T01:03:01.859Z,16.50
2022-09-14T01:05:37.778Z,16.50
2022-09-14T01:08:27.404Z,16.50
2022-09-14T01:10:54.125Z,16.50
2022-09-14T01:13:22.926Z,16.50
2022-09-14T01:16:03.071Z,16.50
2022-09-14T01:18:46.628Z,16.50
2022-09-14T01:21:22.427Z,16.50
2022-09-14T01:24:08.434Z,16.50
2022-09-14T01:26:35.888Z,16.50
2022-09-14T01:29:02.430Z,16.50
2022-09-14T01:31:45.950Z,16.50
2022-09-14T01:34:33.945Z,16.50
2022-09-14T01:37:05.713Z,16.50
2022-09-14T01:39:34.000Z,16.50
2022-09-14T01:42:01.503Z,16.50
2022-09-14T01:44:31.467Z,16.40
2022-09-14T01:47:01.347Z,16.50
2022-09-14T01:49:32.134Z,16.50
2022-09-14T01:52:01.923Z,16.50
2022-09-14T01:54:40.988Z,16.50
2022-09-14T01:57:10.411Z,16.50
2022-09-14T01:59:43.249Z,16.50
2022-09-14T02:02:15.783Z,16.50
2022-09-14T02:05:08.736Z,16.50
2022-09-14T02:07:36.544Z,16.50
2022-09-14T02:10:04.881Z,16.50
2022-09-14T02:12:31.511Z,16.50
2022-09-14T02:14:58.139Z,16.50
2022-09-14T02:17:24.779Z,16.50
2022-09-14T02:19:58.941Z,16.50
2022-09-14T02:22:26.965Z,16.50
2022-09-14T02:24:53.996Z,16.60
2022-09-14T02:27:21.081Z,16.50
2022-09-14T02:29:47.726Z,16.50
2022-09-14T02:32:14.344Z,16.60
2022-09-14T02:34:52.384Z,16.50
2022-09-14T02:37:21.973Z,16.50
2022-09-14T02:40:07.474Z,16.50
2022-09-14T02:42:38.401Z,16.50
2022-09-14T02:45:17.712Z,16.50
2022-09-14T02:47:55.414Z,16.50
2022-09-14T02:50:25.147Z,16.50
2022-09-14T02:52:52.460Z,16.50
2022-09-14T02:55:20.378Z,16.50
2022-09-14T02:58:02.420Z,16.50
2022-09-14T03:00:29.584Z,16.50
2022-09-14T03:02:56.679Z,16.50
2022-09-14T03:05:23.303Z,16.50
2022-09-14T03:07:49.912Z,16.50
2022-09-14T03:10:16.551Z,16.50
2022-09-14T03:12:43.168Z,16.50
2022-09-14T03:15:10.032Z,16.50
2022-09-14T03:17:36.635Z,16.50
2022-09-14T03:20:04.385Z,16.50
2022-09-14T03:22:32.206Z,16.50
2022-09-14T03:24:58.779Z,16.50
2022-09-14T03:27:25.367Z,16.50
2022-09-14T03:29:52.006Z,16.50
2022-09-14T03:32:18.574Z,16.50
2022-09-14T03:34:45.182Z,16.50
2022-09-14T03:37:11.766Z,16.50
2022-09-14T03:39:38.364Z,16.50
2022-09-14T03:42:05.063Z,16.50
2022-09-14T03:44:31.671Z,16.50
2022-09-14T03:46:58.702Z,16.50
2022-09-14T03:49:25.371Z,16.50
2022-09-14T03:51:54.329Z,16.50
2022-09-14T03:54:23.121Z,16.50
2022-09-14T03:56:51.296Z,16.50
2022-09-14T03:59:17.885Z,16.50
2022-09-14T04:01:44.519Z,16.50
2022-09-14T04:04:11.186Z,16.60
2022-09-14T04:06:38.044Z,16.60
2022-09-14T04:09:04.688Z,16.60
2022-09-14T04:11:31.635Z,16.60
2022-09-14T04:14:04.631Z,16.60
2022-09-14T04:16:31.745Z,16.70
2022-09-14T04:18:58.560Z,16.70
2022-09-14T04:21:25.488Z,16.70
2022-09-14T04:26:39.967Z,16.80
2022-09-14T04:29:06.564Z,16.80
2022-09-14T04:31:33.446Z,16.80
2022-09-14T04:34:00.177Z,16.80
2022-09-14T04:36:29.423Z,16.80
2022-09-14T04:38:57.580Z,16.90
2022-09-14T04:41:24.776Z,16.90
2022-09-14T04:43:51.936Z,17.00
2022-09-14T04:46:46.117Z,17.00
2022-09-14T04:49:14.429Z,17.00
2022-09-14T04:51:41.046Z,17.00
2022-09-14T04:54:07.718Z,17.00
2022-09-14T04:56:35.203Z,17.00
2022-09-14T04:59:04.146Z,17.00
2022-09-14T05:01:32.604Z,17.00
2022-09-14T05:03:59.429Z,17.10
2022-09-14T05:06:27.410Z,17.10
2022-09-14T05:08:54.669Z,17.10
2022-09-14T05:11:22.709Z,17.10
2022-09-14T05:13:50.423Z,17.10
2022-09-14T05:16:23.383Z,17.10
2022-09-14T05:18:50.830Z,17.20
2022-09-14T05:21:18.635Z,17.20
2022-09-14T05:23:45.657Z,17.30
2022-09-14T05:26:12.376Z,17.20
2022-09-14T05:28:39.200Z,17.30
2022-09-14T05:31:06.708Z,17.30
2022-09-14T05:33:34.006Z,17.30
2022-09-14T05:36:01.974Z,17.30
2022-09-14T05:38:32.728Z,17.30
2022-09-14T05:40:59.527Z,17.30
2022-09-14T05:43:26.266Z,17.40
2022-09-14T05:45:52.947Z,17.50
2022-09-14T05:48:19.630Z,17.50
2022-09-14T05:50:46.251Z,17.60
2022-09-14T05:53:13.072Z,17.70
2022-09-14T05:55:39.706Z,17.80
2022-09-14T05:58:06.302Z,17.90
2022-09-14T06:00:33.012Z,18.00
2022-09-14T06:02:59.621Z,18.10
2022-09-14T06:05:26.334Z,18.20
2022-09-14T06:07:53.100Z,18.30
2022-09-14T06:10:20.568Z,18.40
2022-09-14T06:12:47.402Z,18.50
2022-09-14T06:15:14.039Z,18.60
2022-09-14T06:17:40.626Z,18.70
2022-09-14T06:20:07.983Z,18.80
2022-09-14T06:22:34.569Z,18.80
2022-09-14T06:25:01.187Z,18.90
2022-09-14T06:27:27.787Z,19.00
2022-09-14T06:29:54.637Z,19.00
2022-09-14T06:32:23.176Z,19.00
2022-09-14T06:34:49.791Z,19.10
2022-09-14T06:37:16.390Z,19.10
2022-09-14T06:39:43.046Z,19.10
2022-09-14T06:42:09.790Z,19.20
2022-09-14T06:44:36.388Z,19.20
2022-09-14T06:47:03.166Z,19.30
2022-09-14T06:49:29.854Z,19.40
2022-09-14T06:51:57.481Z,19.40
2022-09-14T06:54:25.375Z,19.50
2022-09-14T06:56:52.027Z,19.60
2022-09-14T06:59:18.682Z,19.60
2022-09-14T07:01:45.701Z,19.70
2022-09-14T07:04:12.750Z,19.70
2022-09-14T07:06:40.852Z,19.70
2022-09-14T07:09:07.611Z,19.70
2022-09-14T07:11:34.458Z,19.80
2022-09-14T07:14:02.255Z,19.80
2022-09-14T07:16:29.718Z,19.90
2022-09-14T07:18:57.242Z,20.00
2022-09-14T07:21:23.924Z,20.10
2022-09-14T07:23:50.824Z,20.20
2022-09-14T07:26:18.906Z,20.30
2022-09-14T07:28:46.605Z,20.30
2022-09-14T07:31:18.763Z,20.40
2022-09-14T07:33:45.826Z,20.50
2022-09-14T07:36:13.250Z,20.60
2022-09-14T07:38:55.323Z,20.70
2022-09-14T07:41:22.881Z,20.80
2022-09-14T07:43:50.454Z,21.00
2022-09-14T07:46:17.096Z,21.20
2022-09-14T07:48:43.823Z,21.30
2022-09-14T07:51:11.071Z,21.50
2022-09-14T07:53:45.918Z,21.60
2022-09-14T07:56:13.646Z,21.90
2022-09-14T07:58:40.249Z,22.30
2022-09-14T08:01:08.547Z,22.80
2022-09-14T08:03:38.637Z,23.40
2022-09-14T08:06:06.724Z,24.10
2022-09-14T08:08:34.253Z,24.80
2022-09-14T08:11:27.959Z,25.40
2022-09-14T08:13:58.791Z,26.10
2022-09-14T08:16:26.399Z,26.90
2022-09-14T08:18:57.272Z,27.70
2022-09-14T08:21:24.172Z,28.50
2022-09-14T08:23:51.143Z,29.10
2022-09-14T08:26:19.395Z,29.50
2022-09-14T08:28:46.274Z,29.80
2022-09-14T08:31:14.254Z,29.90
2022-09-14T08:33:41.916Z,29.90
2022-09-14T08:36:09.216Z,29.80
2022-09-14T08:38:35.988Z,29.90
2022-09-14T08:41:09.752Z,29.90
2022-09-14T08:43:37.987Z,30.30
2022-09-14T08:46:06.363Z,31.40
2022-09-14T08:48:35.106Z,32.50
2022-09-14T08:51:03.142Z,33.50
2022-09-14T08:53:29.757Z,34.50
2022-09-14T08:56:00.755Z,35.30
2022-09-14T08:58:47.515Z,36.00
2022-09-14T09:01:28.619Z,36.50
2022-09-14T09:04:01.274Z,36.90
2022-09-14T09:06:34.225Z,37.20
2022-09-14T09:09:10.132Z,37.00
2022-09-14T09:11:41.399Z,36.60
2022-09-14T09:14:18.740Z,36.30
2022-09-14T09:16:47.065Z,36.40
2022-09-14T09:19:16.643Z,36.30
2022-09-14T09:21:45.178Z,36.10
2022-09-14T09:24:16.955Z,36.00
2022-09-14T09:26:43.539Z,36.00
2022-09-14T09:29:11.244Z,35.60
2022-09-14T09:31:47.424Z,35.50
2022-09-14T09:34:15.432Z,35.50
2022-09-14T09:36:44.021Z,35.00
2022-09-14T09:39:10.911Z,34.10
2022-09-14T09:41:49.280Z,33.00
2022-09-14T09:44:16.048Z,32.10
2022-09-14T09:46:47.774Z,31.30
2022-09-14T09:49:16.271Z,30.80
2022-09-14T09:51:42.903Z,30.30
2022-09-14T09:54:12.599Z,29.80
2022-09-14T09:56:51.686Z,29.70
2022-09-14T09:59:29.260Z,30.30
2022-09-14T10:01:56.959Z,31.10
2022-09-14T10:04:28.734Z,32.00
2022-09-14T10:06:57.594Z,32.40
2022-09-14T10:09:27.477Z,32.30
2022-09-14T10:11:57.370Z,31.70
2022-09-14T10:14:27.941Z,31.20
2022-09-14T10:17:04.169Z,31.40
2022-09-14T10:19:30.935Z,31.80
2022-09-14T10:22:02.024Z,32.10
2022-09-14T10:24:28.590Z,32.20
2022-09-14T10:26:55.340Z,31.90
2022-09-14T10:29:28.955Z,32.00
2022-09-14T10:31:59.942Z,31.90
2022-09-14T10:34:26.700Z,31.40
2022-09-14T10:36:58.847Z,31.10
2022-09-14T10:39:29.823Z,30.80
2022-09-14T10:42:13.396Z,30.30
2022-09-14T10:44:39.939Z,30.00
2022-09-14T10:47:06.763Z,29.60
2022-09-14T10:49:37.854Z,29.50
2022-09-14T10:52:24.252Z,29.60
2022-09-14T10:54:56.912Z,29.50
2022-09-14T10:57:23.931Z,29.40
2022-09-14T10:59:55.404Z,29.20
2022-09-14T11:02:27.767Z,29.10
2022-09-14T11:05:04.213Z,29.10
2022-09-14T11:07:36.936Z,29.20
2022-09-14T11:10:06.621Z,29.40
2022-09-14T11:13:05.642Z,29.70
2022-09-14T11:15:42.223Z,30.10
2022-09-14T11:18:11.795Z,30.70
2022-09-14T11:20:50.563Z,31.30
2022-09-14T11:23:17.278Z,31.50
2022-09-14T11:25:50.118Z,31.80
2022-09-14T11:28:19.114Z,32.00
2022-09-14T11:30:49.991Z,31.80
2022-09-14T11:33:20.734Z,31.20
2022-09-14T11:35:50.809Z,30.80
2022-09-14T11:38:20.092Z,30.50
2022-09-14T11:40:48.855Z,30.10
2022-09-14T11:43:18.781Z,29.60
2022-09-14T11:45:47.426Z,29.20
2022-09-14T11:51:16.121Z,28.80
2022-09-14T11:53:43.690Z,28.50
2022-09-14T11:56:27.188Z,28.20
2022-09-14T11:58:55.099Z,27.90
2022-09-14T12:01:37.905Z,27.60
2022-09-14T12:04:07.709Z,27.40
2022-09-14T12:06:37.106Z,27.20
2022-09-14T12:09:24.018Z,27.30
2022-09-14T12:11:51.839Z,27.20
2022-09-14T12:14:24.591Z,27.20
2022-09-14T12:17:29.003Z,27.30
2022-09-14T12:19:59.146Z,27.20
2022-09-14T12:22:28.494Z,27.20
2022-09-14T12:25:15.312Z,27.30
2022-09-14T12:27:42.566Z,27.30
2022-09-14T12:30:28.060Z,27.30
2022-09-14T12:32:54.639Z,27.40
2022-09-14T12:35:39.642Z,27.50
2022-09-14T12:38:24.986Z,27.60
2022-09-14T12:40:51.587Z,27.60
2022-09-14T12:43:41.473Z,27.70
2022-09-14T12:46:11.113Z,27.70
2022-09-14T12:48:51.086Z,27.60
2022-09-14T12:51:26.800Z,27.50
2022-09-14T12:54:05.583Z,27.50
2022-09-14T12:56:55.734Z,27.50
2022-09-14T12:59:51.668Z,27.40
2022-09-14T13:02:36.866Z,27.40
2022-09-14T13:05:08.024Z,27.20
2022-09-14T13:07:38.655Z,27.10
2022-09-14T13:10:06.720Z,27.10
2022-09-14T13:12:41.240Z,27.00
2022-09-14T13:15:16.186Z,27.00
2022-09-14T13:17:56.383Z,26.80
2022-09-14T13:20:23.035Z,26.70
2022-09-14T13:22:49.611Z,26.60
2022-09-14T13:25:27.132Z,26.50
2022-09-14T13:27:54.796Z,26.50
2022-09-14T13:30:22.975Z,26.40
2022-09-14T13:32:50.728Z,26.50
2022-09-14T13:35:27.565Z,26.50
2022-09-14T13:37:54.271Z,26.40
2022-09-14T13:40:29.302Z,26.30
2022-09-14T13:42:56.802Z,26.20
2022-09-14T13:45:23.867Z,26.10
2022-09-14T13:47:51.046Z,26.10
2022-09-14T13:50:17.860Z,26.00
2022-09-14T13:53:01.398Z,26.00
2022-09-14T13:55:35.332Z,26.10
2022-09-14T13:58:16.219Z,26.10
2022-09-14T14:01:03.997Z,26.10
2022-09-14T14:03:30.641Z,26.00
2022-09-14T14:05:57.537Z,26.00
2022-09-14T14:08:37.496Z,25.90
2022-09-14T14:11:05.650Z,25.80
2022-09-14T14:13:33.742Z,25.70
2022-09-14T14:16:18.874Z,25.50
2022-09-14T14:18:52.864Z,25.40
2022-09-14T14:21:22.598Z,25.30
2022-09-14T14:24:09.552Z,25.20
2022-09-14T14:26:37.704Z,25.00
2022-09-14T14:29:08.022Z,24.80
2022-09-14T14:31:34.712Z,24.70
2022-09-14T14:34:01.339Z,24.60
2022-09-14T14:36:28.364Z,24.50
2022-09-14T14:38:56.299Z,24.40
2022-09-14T14:41:22.918Z,24.30
2022-09-14T14:43:50.825Z,24.20
2022-09-14T14:46:17.678Z,24.20
2022-09-14T14:48:44.456Z,24.10
2022-09-14T14:51:15.133Z,24.10
2022-09-14T14:53:42.636Z,24.00
2022-09-14T14:56:12.935Z,24.00
2022-09-14T14:58:44.525Z,23.90
2022-09-14T15:01:11.591Z,23.90
2022-09-14T15:03:38.480Z,23.80
2022-09-14T15:06:17.935Z,23.70
2022-09-14T15:08:44.653Z,23.60
2022-09-14T15:11:16.444Z,23.60
2022-09-14T15:13:43.127Z,23.50
2022-09-14T15:16:09.823Z,23.40
2022-09-14T15:18:36.459Z,23.40
2022-09-14T15:21:03.118Z,23.30
2022-09-14T15:23:29.790Z,23.30
2022-09-14T15:25:56.458Z,23.30
2022-09-14T15:28:23.072Z,23.20
2022-09-14T15:30:49.657Z,23.20
2022-09-14T15:33:16.249Z,23.10
2022-09-14T15:35:42.823Z,23.10
2022-09-14T15:38:10.447Z,23.00
2022-09-14T15:40:37.381Z,23.00
2022-09-14T15:43:04.264Z,22.90
2022-09-14T15:45:30.873Z,22.70
2022-09-14T15:47:57.527Z,22.60
2022-09-14T15:50:24.201Z,22.40
2022-09-14T15:52:50.820Z,22.10
2022-09-14T15:55:17.504Z,21.90
2022-09-14T15:57:44.128Z,21.60
2022-09-14T16:00:12.180Z,21.40
2022-09-14T16:02:38.890Z,21.20
2022-09-14T16:05:05.818Z,21.10
2022-09-14T16:07:32.456Z,21.00
2022-09-14T16:09:59.294Z,20.90
2022-09-14T16:12:26.134Z,20.80
2022-09-14T16:14:52.765Z,20.80
2022-09-14T16:17:19.507Z,20.70
2022-09-14T16:19:46.119Z,20.60
2022-09-14T16:22:12.898Z,20.50
2022-09-14T16:24:39.525Z,20.40
2022-09-14T16:27:06.123Z,20.30
2022-09-14T16:29:32.690Z,20.20
2022-09-14T16:31:59.383Z,20.10
2022-09-14T16:34:27.256Z,20.00
2022-09-14T16:36:54.299Z,20.00
2022-09-14T16:39:25.472Z,19.90
2022-09-14T16:41:53.911Z,19.80
2022-09-14T16:44:21.700Z,19.80
2022-09-14T16:46:49.550Z,19.80
2022-09-14T16:49:16.979Z,19.70
2022-09-14T16:51:43.976Z,19.70
2022-09-14T16:54:14.263Z,19.70
2022-09-14T16:56:41.129Z,19.70
2022-09-14T16:59:07.796Z,19.70
2022-09-14T17:01:35.970Z,19.70
2022-09-14T17:04:05.285Z,19.60
2022-09-14T17:06:32.828Z,19.50
2022-09-14T17:09:00.803Z,19.50
2022-09-14T17:11:32.124Z,19.40
2022-09-14T17:13:58.858Z,19.40
2022-09-14T17:16:26.376Z,19.30
2022-09-14T17:18:54.705Z,19.20
2022-09-14T17:21:22.546Z,19.10
2022-09-14T17:23:49.552Z,19.10
2022-09-14T17:26:20.202Z,19.00
2022-09-14T17:28:49.312Z,19.00
2022-09-14T17:31:18.437Z,18.90
2022-09-14T17:33:45.363Z,18.80
2022-09-14T17:36:12.149Z,18.80
2022-09-14T17:38:39.743Z,18.80
2022-09-14T17:41:08.642Z,18.70
2022-09-14T17:43:36.107Z,18.70
2022-09-14T17:46:03.244Z,18.60
2022-09-14T17:48:34.173Z,18.60
2022-09-14T17:51:05.067Z,18.60
2022-09-14T17:53:31.967Z,18.50
2022-09-14T17:56:02.759Z,18.40
2022-09-14T17:58:29.432Z,18.40
2022-09-14T18:01:09.881Z,18.30
2022-09-14T18:03:37.268Z,18.30
2022-09-14T18:06:04.914Z,18.20
2022-09-14T18:08:31.530Z,18.20
2022-09-14T18:11:03.866Z,18.10
2022-09-14T18:13:30.535Z,18.10
2022-09-14T18:15:58.366Z,18.00
2022-09-14T18:18:25.331Z,18.00
2022-09-14T18:20:52.004Z,18.00
2022-09-14T18:23:18.984Z,17.90
2022-09-14T18:25:45.625Z,17.90
2022-09-14T18:28:12.251Z,17.90
2022-09-14T18:30:43.439Z,17.90
2022-09-14T18:33:10.386Z,17.90
2022-09-14T18:35:37.803Z,17.90
2022-09-14T18:38:06.566Z,17.80
2022-09-14T18:40:37.066Z,17.80
2022-09-14T18:43:03.771Z,17.80
2022-09-14T18:45:30.613Z,17.80
2022-09-14T18:47:57.365Z,17.80
2022-09-14T18:50:24.031Z,17.70
2022-09-14T18:52:51.548Z,17.70
2022-09-14T18:55:18.969Z,17.60
2022-09-14T18:57:48.852Z,17.60
2022-09-14T19:00:18.589Z,17.60
2022-09-14T19:02:50.642Z,17.60
2022-09-14T19:05:17.217Z,17.60
2022-09-14T19:07:43.806Z,17.50
2022-09-14T19:10:11.790Z,17.50
2022-09-14T19:12:38.778Z,17.50
2022-09-14T19:15:05.598Z,17.50
2022-09-14T19:17:32.457Z,17.50
2022-09-14T19:19:59.116Z,17.50
2022-09-14T19:22:25.756Z,17.50
2022-09-14T19:24:52.399Z,17.50
2022-09-14T19:27:19.038Z,17.50
2022-09-14T19:29:45.634Z,17.40
2022-09-14T19:32:12.274Z,17.40
2022-09-14T19:34:38.972Z,17.40
2022-09-14T19:37:05.547Z,17.40
2022-09-14T19:39:32.146Z,17.40
2022-09-14T19:41:58.719Z,17.40
2022-09-14T19:44:25.368Z,17.40
2022-09-14T19:46:52.074Z,17.30
2022-09-14T19:49:23.445Z,17.30
2022-09-14T19:51:50.089Z,17.30
2022-09-14T19:54:16.872Z,17.30
2022-09-14T19:56:43.832Z,17.30
2022-09-14T19:59:10.531Z,17.20
2022-09-14T20:01:37.846Z,17.20
2022-09-14T20:04:05.314Z,17.20
2022-09-14T20:06:36.447Z,17.10
2022-09-14T20:09:04.823Z,17.00
2022-09-14T20:11:32.595Z,17.00
2022-09-14T20:14:00.595Z,16.90
2022-09-14T20:16:32.447Z,16.90
2022-09-14T20:19:02.292Z,16.80
2022-09-14T20:21:29.214Z,16.70
2022-09-14T20:24:15.116Z,16.70
2022-09-14T20:26:42.824Z,16.70
2022-09-14T20:29:09.452Z,16.60
2022-09-14T20:31:36.164Z,16.60
2022-09-14T20:34:03.117Z,16.60
2022-09-14T20:36:29.796Z,16.50
2022-09-14T20:38:57.417Z,16.50
2022-09-14T20:41:24.862Z,16.50
2022-09-14T20:43:51.785Z,16.40
2022-09-14T20:46:19.845Z,16.40
2022-09-14T20:48:48.015Z,16.40
2022-09-14T20:51:19.884Z,16.40
2022-09-14T20:53:47.789Z,16.40
2022-09-14T20:56:15.943Z,16.40
2022-09-14T20:58:43.136Z,16.40
2022-09-14T21:01:11.808Z,16.40
2022-09-14T21:03:41.057Z,16.30
2022-09-14T21:06:09.124Z,16.30
2022-09-14T21:08:36.470Z,16.30
2022-09-14T21:11:04.198Z,16.30
2022-09-14T21:13:30.815Z,16.20
2022-09-14T21:15:57.501Z,16.20
2022-09-14T21:18:24.128Z,16.20
2022-09-14T21:20:50.740Z,16.20
2022-09-14T21:23:17.326Z,16.20
2022-09-14T21:25:43.916Z,16.20
2022-09-14T21:28:10.529Z,16.20
2022-09-14T21:30:38.550Z,16.20
2022-09-14T21:33:05.192Z,16.20
2022-09-14T21:35:33.724Z,16.30
2022-09-14T21:38:00.427Z,16.30
2022-09-14T21:40:27.108Z,16.30
2022-09-14T21:42:54.390Z,16.30
2022-09-14T21:45:20.987Z,16.30
2022-09-14T21:47:47.828Z,16.40
2022-09-14T21:50:14.645Z,16.40
2022-09-14T21:52:45.773Z,16.40
2022-09-14T21:55:12.688Z,16.40
2022-09-14T21:57:39.311Z,16.50
2022-09-14T22:00:07.728Z,16.50
2022-09-14T22:02:34.533Z,16.60
2022-09-14T22:05:01.946Z,16.60
2022-09-14T22:07:29.270Z,16.70
2022-09-14T22:09:56.844Z,16.70
2022-09-14T22:12:23.506Z,16.70
2022-09-14T22:14:50.476Z,16.80
2022-09-14T22:17:17.888Z,16.80
2022-09-14T22:19:44.910Z,16.90
2022-09-14T22:22:11.660Z,16.90
2022-09-14T22:24:38.994Z,17.00
2022-09-14T22:27:07.094Z,17.10
2022-09-14T22:29:33.720Z,17.10
2022-09-14T22:32:00.462Z,17.20
2022-09-14T22:34:28.402Z,17.20
2022-09-14T22:36:55.001Z,17.30
2022-09-14T22:39:21.743Z,17.40
2022-09-14T22:41:48.970Z,17.40
2022-09-14T22:44:15.677Z,17.50
2022-09-14T22:46:42.678Z,17.50
2022-09-14T22:49:09.731Z,17.50
2022-09-14T22:51:36.712Z,17.60
2022-09-14T22:54:03.575Z,17.60
2022-09-14T22:56:31.708Z,17.60
2022-09-14T22:58:58.936Z,17.60
2022-09-14T23:01:30.059Z,17.60
2022-09-14T23:03:58.203Z,17.60
2022-09-14T23:06:32.708Z,17.60
2022-09-14T23:09:02.516Z,17.50
2022-09-14T23:11:29.175Z,17.50
2022-09-14T23:13:56.120Z,17.50
2022-09-14T23:16:25.922Z,17.40
2022-09-14T23:18:53.763Z,17.40
2022-09-14T23:21:20.422Z,17.40
2022-09-14T23:23:57.421Z,17.30
2022-09-14T23:26:24.506Z,17.30
2022-09-14T23:28:56.018Z,17.30
2022-09-14T23:31:23.457Z,17.30
2022-09-14T23:33:50.878Z,17.30
2022-09-14T23:36:17.569Z,17.30
2022-09-14T23:38:44.944Z,17.20
2022-09-14T23:41:11.548Z,17.20
2022-09-14T23:43:38.140Z,17.20
2022-09-14T23:46:04.838Z,17.20
2022-09-14T23:48:31.474Z,17.20
2022-09-14T23:51:02.702Z,17.10
2022-09-14T23:53:29.822Z,17.20
2022-09-14T23:55:56.569Z,17.20
2022-09-14T23:58:23.198Z,17.20
